createdAt,value
2023-06-02T00:02:13.549Z,14.18
2023-06-02T00:04:42.043Z,14.19
2023-06-02T00:07:10.163Z,14.19
2023-06-02T00:09:39.445Z,14.17
2023-06-02T00:12:09.200Z,14.15
2023-06-02T00:14:39.196Z,14.08
2023-06-02T00:17:08.306Z,14.08
2023-06-02T00:19:36.717Z,14.10
2023-06-02T00:22:08.246Z,14.09
2023-06-02T00:24:36.119Z,14.05
2023-06-02T00:27:03.880Z,14.01
2023-06-02T00:29:31.897Z,13.96
2023-06-02T00:32:01.148Z,13.96
2023-06-02T00:34:28.917Z,13.97
2023-06-02T00:36:56.728Z,13.94
2023-06-02T00:39:24.541Z,13.98
2023-06-02T00:41:52.445Z,14.01
2023-06-02T00:44:21.427Z,13.94
2023-06-02T00:46:49.196Z,13.91
2023-06-02T00:49:18.419Z,13.90
2023-06-02T00:51:46.797Z,13.86
2023-06-02T00:54:16.786Z,13.78
2023-06-02T00:56:44.494Z,13.73
2023-06-02T00:59:12.803Z,13.71
2023-06-02T01:01:41.842Z,13.71
2023-06-02T01:04:09.857Z,13.75
2023-06-02T01:06:39.420Z,13.77
2023-06-02T01:09:11.949Z,13.78
2023-06-02T01:11:39.927Z,13.75
2023-06-02T01:14:07.678Z,13.75
2023-06-02T01:16:35.376Z,13.72
2023-06-02T01:19:03.603Z,13.69
2023-06-02T01:21:35.404Z,13.68
2023-06-02T01:24:05.000Z,13.67
2023-06-02T01:26:35.483Z,13.63
2023-06-02T01:29:03.742Z,13.58
2023-06-02T01:31:34.997Z,13.49
2023-06-02T01:34:09.433Z,13.40
2023-06-02T01:36:40.183Z,13.41
2023-06-02T01:39:10.293Z,13.45
2023-06-02T01:41:41.362Z,13.50
2023-06-02T01:44:09.141Z,13.53
2023-06-02T01:46:36.953Z,13.52
2023-06-02T01:49:04.687Z,13.50
2023-06-02T01:51:32.755Z,13.49
2023-06-02T01:54:02.567Z,13.44
2023-06-02T01:56:31.779Z,13.43
2023-06-02T01:59:01.645Z,13.40
2023-06-02T02:01:29.720Z,13.32
2023-06-02T02:03:57.637Z,13.26
2023-06-02T02:06:30.812Z,13.24
2023-06-02T02:08:58.751Z,13.27
2023-06-02T02:11:27.709Z,13.30
2023-06-02T02:13:57.091Z,13.33
2023-06-02T02:16:24.845Z,13.39
2023-06-02T02:18:53.514Z,13.46
2023-06-02T02:21:21.617Z,13.51
2023-06-02T02:23:49.463Z,13.52
2023-06-02T02:26:17.535Z,13.55
2023-06-02T02:28:45.337Z,13.58
2023-06-02T02:31:15.199Z,13.62
2023-06-02T02:33:43.013Z,13.61
2023-06-02T02:36:13.068Z,13.61
2023-06-02T02:38:40.879Z,13.61
2023-06-02T02:41:08.696Z,13.62
2023-06-02T02:43:36.435Z,13.54
2023-06-02T02:46:04.596Z,13.53
2023-06-02T02:48:34.856Z,13.51
2023-06-02T02:51:02.698Z,13.51
2023-06-02T02:53:32.315Z,13.54
2023-06-02T02:56:00.432Z,13.52
2023-06-02T02:58:28.280Z,13.50
2023-06-02T03:00:56.802Z,13.46
2023-06-02T03:03:24.683Z,13.43
2023-06-02T03:05:55.912Z,13.43
2023-06-02T03:08:23.934Z,13.48
2023-06-02T03:10:51.666Z,13.50
2023-06-02T03:13:19.380Z,13.50
2023-06-02T03:15:47.228Z,13.51
2023-06-02T03:18:14.993Z,13.51
2023-06-02T03:20:43.339Z,13.50
2023-06-02T03:23:12.829Z,13.44
2023-06-02T03:25:41.760Z,13.44
2023-06-02T03:28:09.536Z,13.41
2023-06-02T03:30:37.318Z,13.40
2023-06-02T03:33:05.227Z,13.42
2023-06-02T03:35:33.137Z,13.44
2023-06-02T03:38:00.920Z,13.48
2023-06-02T03:40:30.168Z,13.50
2023-06-02T03:42:58.000Z,13.54
2023-06-02T03:45:25.982Z,13.58
2023-06-02T03:47:53.792Z,13.61
2023-06-02T03:50:21.509Z,13.59
2023-06-02T03:52:49.268Z,13.61
2023-06-02T03:55:17.340Z,13.62
2023-06-02T03:57:47.185Z,13.64
2023-06-02T04:00:15.368Z,13.65
2023-06-02T04:02:43.465Z,13.64
2023-06-02T04:05:13.054Z,13.61
2023-06-02T04:07:41.061Z,13.61
2023-06-02T04:10:09.358Z,13.62
2023-06-02T04:12:37.042Z,13.59
2023-06-02T04:15:06.773Z,13.56
2023-06-02T04:17:34.555Z,13.54
2023-06-02T04:20:02.335Z,13.51
2023-06-02T04:22:29.999Z,13.50
2023-06-02T04:24:57.698Z,13.40
2023-06-02T04:27:25.468Z,13.46
2023-06-02T04:29:53.256Z,13.42
2023-06-02T04:32:22.476Z,13.40
2023-06-02T04:34:51.455Z,13.40
2023-06-02T04:37:19.656Z,13.43
2023-06-02T04:39:51.349Z,13.48
2023-06-02T04:42:19.197Z,13.52
2023-06-02T04:44:48.234Z,13.53
2023-06-02T04:47:15.945Z,13.53
2023-06-02T04:49:45.041Z,13.55
2023-06-02T04:52:12.830Z,13.59
2023-06-02T04:54:40.995Z,13.57
2023-06-02T04:57:09.684Z,13.54
2023-06-02T04:59:37.627Z,13.52
2023-06-02T05:02:05.639Z,13.57
2023-06-02T05:04:33.670Z,13.61
2023-06-02T05:07:04.732Z,13.60
2023-06-02T05:09:32.379Z,13.59
2023-06-02T05:12:00.562Z,13.58
2023-06-02T05:14:28.848Z,13.55
2023-06-02T05:16:57.220Z,13.57
2023-06-02T05:19:24.973Z,13.58
2023-06-02T05:21:52.724Z,13.56
2023-06-02T05:24:21.931Z,13.58
2023-06-02T05:26:49.680Z,13.58
2023-06-02T05:29:17.402Z,13.61
2023-06-02T05:31:45.043Z,13.59
2023-06-02T05:34:12.993Z,13.57
2023-06-02T05:36:40.708Z,13.59
2023-06-02T05:39:08.438Z,13.60
2023-06-02T05:41:37.610Z,13.59
2023-06-02T05:44:05.353Z,13.58
2023-06-02T05:46:33.220Z,13.58
2023-06-02T05:49:01.075Z,13.54
2023-06-02T05:51:28.801Z,13.54
2023-06-02T05:53:56.552Z,13.55
2023-06-02T05:56:24.317Z,13.54
2023-06-02T05:58:53.707Z,13.49
2023-06-02T06:01:21.468Z,13.54
2023-06-02T06:03:49.263Z,13.56
2023-06-02T06:06:17.258Z,13.58
2023-06-02T06:08:45.003Z,13.61
2023-06-02T06:11:13.428Z,13.63
2023-06-02T06:13:41.180Z,13.68
2023-06-02T06:16:10.301Z,13.73
2023-06-02T06:18:38.038Z,13.75
2023-06-02T06:21:05.806Z,13.76
2023-06-02T06:23:33.519Z,13.78
2023-06-02T06:26:01.342Z,13.71
2023-06-02T06:28:29.237Z,13.66
2023-06-02T06:30:57.093Z,13.64
2023-06-02T06:33:26.304Z,13.62
2023-06-02T06:35:54.876Z,13.65
2023-06-02T06:38:22.554Z,13.71
2023-06-02T06:40:50.287Z,13.72
2023-06-02T06:45:48.721Z,13.73
2023-06-02T06:48:16.480Z,13.75
2023-06-02T06:50:45.850Z,13.84
2023-06-02T06:53:13.517Z,13.84
2023-06-02T06:55:41.237Z,13.88
2023-06-02T06:58:09.004Z,13.92
2023-06-02T07:00:36.814Z,13.94
2023-06-02T07:03:04.811Z,14.00
2023-06-02T07:05:32.584Z,14.04
2023-06-02T07:08:01.979Z,14.08
2023-06-02T07:10:29.846Z,14.11
2023-06-02T07:12:57.685Z,14.10
2023-06-02T07:15:25.410Z,14.11
2023-06-02T07:17:53.159Z,14.13
2023-06-02T07:20:20.934Z,14.11
2023-06-02T07:22:48.671Z,14.08
2023-06-02T07:25:17.827Z,14.06
2023-06-02T07:27:45.598Z,14.07
2023-06-02T07:30:14.071Z,14.09
2023-06-02T07:32:41.810Z,14.12
2023-06-02T07:35:10.021Z,14.14
2023-06-02T07:37:37.733Z,14.17
2023-06-02T07:40:06.391Z,14.22
2023-06-02T07:42:35.508Z,14.26
2023-06-02T07:45:03.360Z,14.23
2023-06-02T07:47:31.136Z,14.20
2023-06-02T07:49:59.062Z,14.18
2023-06-02T07:52:26.780Z,14.12
2023-06-02T07:54:54.445Z,14.12
2023-06-02T07:57:22.211Z,14.13
2023-06-02T07:59:55.567Z,14.13
2023-06-02T08:02:23.496Z,14.15
2023-06-02T08:04:51.446Z,14.20
2023-06-02T08:07:19.235Z,14.22
2023-06-02T08:09:47.091Z,14.24
2023-06-02T08:12:14.909Z,14.30
2023-06-02T08:14:43.851Z,14.36
2023-06-02T08:17:13.365Z,14.38
2023-06-02T08:19:41.111Z,14.38
2023-06-02T08:22:10.898Z,14.40
2023-06-02T08:24:39.187Z,14.43
2023-06-02T08:27:09.644Z,14.44
2023-06-02T08:29:37.364Z,14.46
2023-06-02T08:32:05.762Z,14.47
2023-06-02T08:34:34.941Z,14.49
2023-06-02T08:37:02.682Z,14.51
2023-06-02T08:39:31.123Z,14.55
2023-06-02T08:42:03.023Z,14.59
2023-06-02T08:44:30.929Z,14.62
2023-06-02T08:46:59.146Z,14.64
2023-06-02T08:49:27.909Z,14.68
2023-06-02T08:52:01.948Z,14.69
2023-06-02T08:54:30.071Z,14.71
2023-06-02T08:57:00.215Z,14.76
2023-06-02T08:59:27.992Z,14.80
2023-06-02T09:01:56.950Z,14.77
2023-06-02T09:04:24.713Z,14.86
2023-06-02T09:07:16.917Z,14.88
2023-06-02T09:09:46.104Z,14.91
2023-06-02T09:12:14.713Z,14.93
2023-06-02T09:14:43.136Z,14.90
2023-06-02T09:17:27.523Z,14.91
2023-06-02T09:19:56.714Z,14.92
2023-06-02T09:22:26.009Z,14.96
2023-06-02T09:24:54.542Z,14.99
2023-06-02T09:27:22.568Z,15.00
2023-06-02T09:29:51.829Z,15.05
2023-06-02T09:32:21.187Z,15.09
2023-06-02T09:34:50.236Z,15.11
2023-06-02T09:37:19.158Z,15.13
2023-06-02T09:39:50.491Z,15.12
2023-06-02T09:42:20.517Z,15.15
2023-06-02T09:45:04.046Z,15.21
2023-06-02T09:47:38.863Z,15.24
2023-06-02T09:50:07.557Z,15.25
2023-06-02T09:52:36.277Z,15.28
2023-06-02T09:55:09.457Z,15.30
2023-06-02T09:57:37.508Z,15.31
2023-06-02T10:00:08.103Z,15.29
2023-06-02T10:02:36.393Z,15.31
2023-06-02T10:05:06.531Z,15.35
2023-06-02T10:07:43.152Z,15.39
2023-06-02T10:10:23.580Z,15.45
2023-06-02T10:13:06.001Z,15.47
2023-06-02T10:16:00.675Z,15.53
2023-06-02T10:18:51.646Z,15.56
2023-06-02T10:21:24.506Z,15.61
2023-06-02T10:23:58.582Z,15.61
2023-06-02T10:26:44.179Z,15.63
2023-06-02T10:29:12.018Z,15.64
2023-06-02T10:31:40.518Z,15.66
2023-06-02T10:34:08.287Z,15.67
2023-06-02T10:37:21.793Z,15.69
2023-06-02T10:39:52.684Z,15.74
2023-06-02T10:42:23.305Z,15.77
2023-06-02T10:44:53.089Z,15.81
2023-06-02T10:47:39.366Z,15.84
2023-06-02T10:50:13.573Z,15.92
2023-06-02T10:53:11.136Z,15.94
2023-06-02T10:55:40.713Z,15.99
2023-06-02T10:58:13.350Z,16.11
2023-06-02T11:00:51.190Z,16.28
2023-06-02T11:03:34.819Z,16.46
2023-06-02T11:06:25.446Z,16.66
2023-06-02T11:08:54.308Z,16.83
2023-06-02T11:11:54.381Z,16.91
2023-06-02T11:14:24.198Z,16.91
2023-06-02T11:17:31.846Z,16.89
2023-06-02T11:20:00.231Z,16.87
2023-06-02T11:22:28.478Z,16.87
2023-06-02T11:24:57.454Z,16.90
2023-06-02T11:27:37.821Z,16.91
2023-06-02T11:31:32.653Z,17.03
2023-06-02T11:34:00.525Z,17.23
2023-06-02T11:36:29.534Z,17.44
2023-06-02T11:39:03.936Z,17.67
2023-06-02T11:41:32.243Z,17.82
2023-06-02T11:44:05.535Z,17.95
2023-06-02T11:46:34.774Z,18.03
2023-06-02T11:49:02.847Z,18.01
2023-06-02T11:51:31.376Z,17.95
2023-06-02T11:54:03.922Z,17.88
2023-06-02T11:56:33.167Z,17.77
2023-06-02T11:59:00.933Z,17.75
2023-06-02T12:01:34.614Z,17.81
2023-06-02T12:04:05.696Z,17.94
2023-06-02T12:06:34.707Z,18.03
2023-06-02T12:09:11.755Z,18.09
2023-06-02T12:11:39.765Z,18.06
2023-06-02T12:14:08.583Z,18.15
2023-06-02T14:07:49.982Z,19.10
2023-06-02T14:10:18.067Z,19.11
2023-06-02T14:12:47.297Z,19.16
2023-06-02T14:15:15.672Z,19.16
2023-06-02T14:17:43.361Z,19.15
2023-06-02T14:20:11.711Z,19.12
2023-06-02T14:22:39.477Z,19.15
2023-06-02T14:25:09.602Z,19.12
2023-06-02T14:27:37.304Z,19.11
2023-06-02T14:30:05.729Z,19.16
2023-06-02T14:32:33.471Z,19.13
2023-06-02T14:35:01.258Z,19.10
2023-06-02T14:37:29.400Z,19.10
2023-06-02T14:50:10.704Z,18.52
2023-06-02T14:52:38.519Z,18.84
2023-06-02T14:55:07.296Z,19.04
2023-06-02T14:57:35.196Z,19.13
2023-06-02T15:00:03.493Z,19.21
2023-06-02T15:02:31.270Z,19.26
2023-06-02T15:04:58.990Z,19.24
2023-06-02T15:07:28.223Z,19.30
2023-06-02T15:09:55.987Z,19.33
2023-06-02T15:12:23.697Z,19.36
2023-06-02T15:14:51.374Z,19.39
2023-06-02T15:19:49.176Z,19.43
2023-06-02T15:22:17.341Z,19.47
2023-06-02T15:24:45.163Z,19.52
2023-06-02T15:27:13.392Z,19.66
2023-06-02T15:29:41.117Z,19.79
2023-06-02T15:32:09.674Z,19.86
2023-06-02T15:34:37.432Z,19.86
2023-06-02T15:37:07.454Z,20.02
2023-06-02T15:39:35.233Z,20.07
2023-06-02T15:42:02.996Z,20.13
2023-06-02T15:44:30.649Z,20.13
2023-06-02T15:46:58.417Z,20.12
2023-06-02T15:49:27.512Z,20.09
2023-06-02T15:51:55.875Z,20.13
2023-06-02T15:54:25.016Z,20.22
2023-06-02T15:56:53.965Z,20.32
2023-06-02T15:59:21.829Z,20.34
2023-06-02T16:01:49.746Z,20.43
2023-06-02T16:04:17.649Z,20.52
2023-06-02T16:06:45.361Z,20.61
2023-06-02T16:37:19.926Z,20.12
2023-06-02T16:39:47.906Z,20.21
2023-06-02T16:44:04.848Z,20.38
2023-06-02T16:46:32.911Z,20.46
2023-06-02T16:49:00.747Z,20.54
2023-06-02T16:51:28.462Z,20.52
2023-06-02T16:53:56.383Z,20.46
2023-06-02T16:56:24.173Z,20.45
2023-06-02T16:58:52.119Z,20.41
2023-06-02T17:01:21.378Z,20.45
2023-06-02T17:03:49.141Z,20.50
2023-06-02T17:06:18.563Z,20.58
2023-06-02T17:08:46.336Z,20.62
2023-06-02T17:11:14.129Z,20.66
2023-06-02T17:13:41.890Z,20.65
2023-06-02T17:16:09.776Z,20.60
2023-06-02T17:18:38.866Z,20.60
2023-06-02T17:21:06.784Z,20.58
2023-06-02T17:23:34.703Z,20.56
2023-06-02T17:26:02.790Z,20.59
2023-06-02T17:28:31.005Z,20.58
2023-06-02T17:30:59.809Z,20.60
2023-06-02T17:33:27.601Z,20.61
2023-06-02T17:35:56.796Z,20.57
2023-06-02T17:38:24.597Z,20.57
2023-06-02T17:40:52.378Z,20.60
2023-06-02T17:43:20.392Z,20.64
2023-06-02T17:45:48.493Z,20.64
2023-06-02T17:48:16.283Z,20.62
2023-06-02T17:50:44.058Z,20.57
2023-06-02T17:53:13.499Z,20.50
2023-06-02T17:55:43.058Z,20.44
2023-06-02T17:58:11.192Z,20.42
2023-06-02T18:00:39.087Z,20.38
2023-06-02T18:03:06.967Z,20.33
2023-06-02T18:05:34.898Z,20.26
2023-06-02T18:08:03.753Z,20.22
2023-06-02T18:10:32.897Z,20.17
2023-06-02T18:13:01.803Z,20.14
2023-06-02T18:15:29.801Z,20.13
2023-06-02T18:17:57.572Z,20.11
2023-06-02T18:20:25.367Z,20.10
2023-06-02T18:22:53.445Z,20.13
2023-06-02T18:25:21.896Z,20.13
2023-06-02T18:27:51.499Z,20.12
2023-06-02T18:30:19.250Z,20.16
2023-06-02T18:32:47.522Z,20.15
2023-06-02T18:35:15.272Z,20.14
2023-06-02T18:37:43.057Z,20.12
2023-06-02T18:40:12.287Z,20.09
2023-06-02T18:43:14.309Z,20.09
2023-06-02T18:45:42.039Z,20.06
2023-06-02T18:48:11.003Z,20.05
2023-06-02T18:50:39.348Z,20.03
2023-06-02T18:53:07.308Z,20.00
2023-06-02T18:55:35.049Z,19.96
2023-06-02T18:58:02.766Z,19.96
2023-06-02T19:00:31.892Z,19.89
2023-06-02T19:02:59.719Z,19.89
2023-06-02T19:05:27.537Z,19.92
2023-06-02T19:07:55.421Z,19.90
2023-06-02T19:10:23.311Z,19.91
2023-06-02T19:12:51.046Z,19.88
2023-06-02T19:15:18.769Z,19.86
2023-06-02T19:17:51.298Z,19.86
2023-06-02T19:20:19.275Z,19.83
2023-06-02T19:22:47.123Z,19.80
2023-06-02T19:25:15.237Z,19.77
2023-06-02T19:27:43.040Z,19.73
2023-06-02T19:30:11.394Z,19.69
2023-06-02T19:32:43.569Z,19.68
2023-06-02T19:35:12.749Z,19.62
2023-06-02T19:37:40.602Z,19.61
2023-06-02T19:40:10.397Z,19.58
2023-06-02T19:42:38.533Z,19.54
2023-06-02T19:45:07.140Z,19.50
2023-06-02T19:47:34.912Z,19.48
2023-06-02T19:50:02.710Z,19.44
2023-06-02T19:52:31.829Z,19.37
2023-06-02T19:55:01.183Z,19.34
2023-06-02T19:57:29.058Z,19.30
2023-06-02T19:59:56.931Z,19.27
2023-06-02T20:02:24.698Z,19.23
2023-06-02T20:04:55.333Z,19.19
2023-06-02T20:08:56.090Z,19.12
2023-06-02T20:11:23.830Z,19.11
2023-06-02T20:13:52.250Z,19.09
2023-06-02T20:16:20.132Z,19.03
2023-06-02T20:18:47.854Z,19.01
2023-06-02T20:21:15.555Z,18.94
2023-06-02T20:23:43.879Z,18.86
2023-06-02T20:26:13.988Z,18.84
2023-06-02T20:28:43.911Z,18.79
2023-06-02T20:31:11.834Z,18.78
2023-06-02T20:33:39.651Z,18.73
2023-06-02T20:36:07.786Z,18.70
2023-06-02T20:38:35.529Z,18.68
2023-06-02T20:41:03.316Z,18.65
2023-06-02T20:43:32.846Z,18.65
2023-06-02T20:46:00.570Z,18.61
2023-06-02T20:48:28.305Z,18.58
2023-06-02T20:50:55.964Z,18.57
2023-06-02T20:53:23.764Z,18.56
2023-06-02T20:55:52.599Z,18.53
2023-06-02T20:58:22.905Z,18.52
2023-06-02T21:00:52.155Z,18.51
2023-06-02T21:03:19.892Z,18.49
2023-06-02T21:05:47.982Z,18.47
2023-06-02T21:08:15.727Z,18.44
2023-06-02T21:10:43.470Z,18.40
2023-06-02T21:13:11.283Z,18.36
2023-06-02T21:15:38.974Z,18.33
2023-06-02T21:18:08.340Z,18.30
2023-06-02T21:20:36.768Z,18.28
2023-06-02T21:23:04.412Z,18.25
2023-06-02T21:25:32.137Z,18.24
2023-06-02T21:27:59.976Z,18.22
2023-06-02T21:30:27.739Z,18.20
2023-06-02T21:32:55.559Z,18.20
2023-06-02T21:35:24.741Z,18.16
2023-06-02T21:37:52.456Z,18.13
2023-06-02T21:40:20.165Z,18.05
2023-06-02T21:42:47.915Z,18.13
2023-06-02T21:45:15.797Z,18.08
2023-06-02T21:47:44.030Z,18.10
2023-06-02T21:50:12.211Z,18.10
2023-06-02T21:52:41.631Z,18.09
2023-06-02T21:55:09.662Z,18.05
2023-06-02T21:57:37.445Z,18.02
2023-06-02T22:00:06.781Z,18.01
2023-06-02T22:02:34.858Z,17.99
2023-06-02T22:05:03.078Z,17.97
2023-06-02T22:07:30.882Z,17.93
2023-06-02T22:10:00.057Z,17.90
2023-06-02T22:12:27.907Z,17.86
2023-06-02T22:14:56.421Z,17.86
2023-06-02T22:17:24.734Z,17.83
2023-06-02T22:19:52.560Z,17.81
2023-06-02T22:22:20.303Z,17.76
2023-06-02T22:24:47.982Z,17.75
2023-06-02T22:27:17.093Z,17.75
2023-06-02T22:29:44.773Z,17.67
2023-06-02T22:32:12.503Z,17.70
2023-06-02T22:34:40.394Z,17.66
2023-06-02T22:37:08.230Z,17.65
2023-06-02T22:39:36.006Z,17.64
2023-06-02T22:42:03.733Z,17.63
2023-06-02T22:44:32.867Z,17.60
2023-06-02T22:47:01.172Z,17.57
2023-06-02T22:49:28.940Z,17.51
2023-06-02T22:51:56.690Z,17.50
2023-06-02T22:54:24.388Z,17.48
2023-06-02T22:56:52.139Z,17.45
2023-06-02T22:59:19.829Z,17.43
2023-06-02T23:01:48.965Z,17.42
2023-06-02T23:04:16.745Z,17.39
2023-06-02T23:06:44.522Z,17.37
2023-06-02T23:09:12.484Z,17.35
2023-06-02T23:11:40.574Z,17.33
2023-06-02T23:14:08.312Z,17.30
2023-06-02T23:16:36.083Z,17.26
2023-06-02T23:19:05.708Z,17.24
2023-06-02T23:21:33.565Z,17.22
2023-06-02T23:24:01.321Z,17.18
2023-06-02T23:26:29.092Z,17.17
2023-06-02T23:28:56.786Z,17.16
2023-06-02T23:31:24.508Z,17.13
2023-06-02T23:33:52.266Z,17.13
2023-06-02T23:36:21.589Z,17.12
2023-06-02T23:38:49.405Z,17.09
2023-06-02T23:41:17.326Z,17.06
2023-06-02T23:43:45.176Z,17.07
2023-06-02T23:46:12.899Z,17.06
2023-06-02T23:48:40.774Z,17.03
2023-06-02T23:51:09.906Z,17.02
2023-06-02T23:53:39.063Z,17.00
2023-06-02T23:56:08.119Z,16.94
2023-06-02T23:58:36.294Z,16.97
